createdAt,value
2019-03-22T00:02:11.680Z,46.63
2019-03-22T00:04:43.005Z,43.03
2019-03-22T00:07:14.395Z,45.87
2019-03-22T00:09:45.644Z,47.87
2019-03-22T00:12:16.896Z,49.37
2019-03-22T00:14:48.171Z,40.73
2019-03-22T00:17:20.344Z,40.47
2019-03-22T00:19:51.638Z,42.33
2019-03-22T00:22:22.917Z,41.70
2019-03-22T00:24:54.181Z,45.43
2019-03-22T00:27:25.435Z,41.57
2019-03-22T00:29:56.703Z,45.53
2019-03-22T00:32:27.981Z,46.73
2019-03-22T00:34:59.448Z,42.03
2019-03-22T00:37:30.755Z,40.40
2019-03-22T00:40:02.059Z,46.17
2019-03-22T00:42:33.306Z,46.10
2019-03-22T00:45:04.916Z,42.13
2019-03-22T00:47:36.176Z,43.57
2019-03-22T00:50:08.432Z,44.97
2019-03-22T00:52:40.788Z,43.83
2019-03-22T00:55:12.305Z,44.93
2019-03-22T00:57:43.710Z,42.60
2019-03-22T01:00:17.005Z,39.90
2019-03-22T01:02:48.836Z,40.33
2019-03-22T01:05:20.127Z,41.67
2019-03-22T01:07:51.468Z,45.43
2019-03-22T01:10:22.901Z,43.93
2019-03-22T01:12:56.750Z,44.53
2019-03-22T01:15:28.150Z,42.60
2019-03-22T01:17:59.404Z,43.13
2019-03-22T01:20:31.039Z,41.80
2019-03-22T01:23:02.537Z,40.77
2019-03-22T01:25:34.999Z,41.87
2019-03-22T01:28:06.257Z,40.00
2019-03-22T01:30:37.552Z,42.37
2019-03-22T01:33:09.447Z,44.43
2019-03-22T01:35:41.780Z,44.43
2019-03-22T01:38:13.077Z,43.97
2019-03-22T01:40:44.957Z,43.87
2019-03-22T01:43:16.863Z,43.27
2019-03-22T01:45:48.447Z,45.67
2019-03-22T01:48:19.730Z,42.50
2019-03-22T01:50:50.980Z,44.33
2019-03-22T01:53:22.230Z,46.53
2019-03-22T01:55:54.338Z,42.83
2019-03-22T01:58:25.612Z,45.37
2019-03-22T02:00:56.868Z,48.63
2019-03-22T02:03:28.172Z,47.27
2019-03-22T02:05:59.441Z,47.03
2019-03-22T02:08:30.690Z,48.43
2019-03-22T02:11:02.851Z,45.10
2019-03-22T02:13:35.601Z,48.40
2019-03-22T02:16:06.883Z,49.10
2019-03-22T02:18:38.759Z,46.87
2019-03-22T02:21:10.072Z,49.63
2019-03-22T02:23:41.715Z,45.70
2019-03-22T02:26:13.063Z,46.00
2019-03-22T02:28:44.355Z,47.77
2019-03-22T02:31:17.121Z,51.10
2019-03-22T02:33:48.368Z,48.53
2019-03-22T02:36:21.433Z,49.97
2019-03-22T02:38:52.706Z,53.23
2019-03-22T02:41:24.027Z,51.27
2019-03-22T02:43:55.817Z,54.20
2019-03-22T02:46:27.259Z,52.23
2019-03-22T02:48:58.526Z,54.93
2019-03-22T02:51:30.842Z,56.13
2019-03-22T02:54:02.216Z,57.60
2019-03-22T02:56:34.429Z,59.80
2019-03-22T02:59:05.694Z,56.70
2019-03-22T03:01:36.974Z,58.23
2019-03-22T03:04:08.337Z,56.33
2019-03-22T03:06:39.640Z,58.03
2019-03-22T03:09:11.682Z,59.33
2019-03-22T03:11:44.452Z,59.27
2019-03-22T03:14:15.906Z,60.43
2019-03-22T03:16:48.191Z,58.97
2019-03-22T03:19:19.511Z,56.33
2019-03-22T03:21:50.776Z,58.13
2019-03-22T03:24:22.048Z,61.70
2019-03-22T03:26:53.300Z,57.53
2019-03-22T03:29:26.077Z,59.00
2019-03-22T03:31:58.495Z,59.13
2019-03-22T03:34:29.958Z,60.30
2019-03-22T03:37:01.333Z,56.50
2019-03-22T03:39:32.581Z,60.77
2019-03-22T03:42:03.844Z,58.23
2019-03-22T03:44:35.123Z,54.47
2019-03-22T03:47:10.168Z,54.33
2019-03-22T03:49:39.665Z,54.10
2019-03-22T03:52:12.139Z,58.83
2019-03-22T03:54:44.499Z,60.03
2019-03-22T03:57:15.739Z,58.17
2019-03-22T03:59:47.091Z,59.03
2019-03-22T04:02:18.334Z,58.90
2019-03-22T04:04:49.608Z,55.10
2019-03-22T04:07:21.791Z,61.93
2019-03-22T04:09:53.202Z,59.13
2019-03-22T04:12:24.965Z,59.40
2019-03-22T04:14:56.247Z,60.43
2019-03-22T04:17:27.511Z,62.77
2019-03-22T04:19:58.834Z,57.40
2019-03-22T04:22:30.705Z,61.73
2019-03-22T04:25:06.248Z,58.47
2019-03-22T04:27:37.531Z,61.40
2019-03-22T04:30:10.825Z,60.00
2019-03-22T04:32:42.866Z,56.57
2019-03-22T04:35:14.236Z,56.77
2019-03-22T04:37:45.487Z,61.27
2019-03-22T04:40:26.661Z,59.27
2019-03-22T04:42:59.758Z,58.23
2019-03-22T04:45:33.834Z,60.77
2019-03-22T04:48:14.435Z,55.93
2019-03-22T04:50:49.510Z,58.63
2019-03-22T04:53:25.096Z,61.20
2019-03-22T04:56:02.231Z,54.37
2019-03-22T04:58:35.297Z,58.57
2019-03-22T05:01:08.744Z,56.67
2019-03-22T05:03:42.280Z,51.10
2019-03-22T05:06:14.460Z,51.00
2019-03-22T05:08:47.924Z,52.63
2019-03-22T05:11:22.811Z,54.23
2019-03-22T05:14:00.288Z,54.43
2019-03-22T05:16:33.370Z,59.47
2019-03-22T05:19:07.422Z,54.47
2019-03-22T05:21:40.524Z,53.57
2019-03-22T05:24:18.053Z,56.37
2019-03-22T05:26:50.940Z,52.70
2019-03-22T05:29:30.474Z,54.53
2019-03-22T05:32:10.372Z,53.77
2019-03-22T05:34:41.628Z,52.97
2019-03-22T05:37:14.071Z,52.33
2019-03-22T05:39:45.322Z,52.70
2019-03-22T05:42:16.582Z,54.37
2019-03-22T05:44:49.007Z,50.27
2019-03-22T05:47:21.654Z,54.37
2019-03-22T05:49:53.062Z,57.17
2019-03-22T05:52:24.357Z,54.27
2019-03-22T05:54:56.832Z,53.40
2019-03-22T05:57:28.225Z,58.57
2019-03-22T05:59:59.478Z,57.20
2019-03-22T06:02:32.685Z,58.57
2019-03-22T06:05:04.752Z,57.40
2019-03-22T06:07:37.135Z,54.83
2019-03-22T06:10:10.281Z,56.20
2019-03-22T06:12:41.531Z,58.90
2019-03-22T06:15:12.808Z,56.27
2019-03-22T06:17:51.644Z,60.93
2019-03-22T06:20:17.640Z,60.63
2019-03-22T06:22:48.972Z,61.80
2019-03-22T06:25:21.099Z,56.40
2019-03-22T06:27:52.366Z,55.43
2019-03-22T06:30:23.731Z,52.40
2019-03-22T06:32:55.412Z,50.00
2019-03-22T06:35:28.247Z,57.47
2019-03-22T06:37:59.547Z,55.77
2019-03-22T06:40:31.189Z,59.20
2019-03-22T06:43:02.571Z,55.80
2019-03-22T06:45:33.837Z,55.10
2019-03-22T06:48:05.153Z,55.70
2019-03-22T06:50:36.456Z,56.07
2019-03-22T06:53:08.056Z,56.43
2019-03-22T06:55:39.423Z,46.20
2019-03-22T06:58:10.704Z,54.03
2019-03-22T07:00:41.970Z,54.67
2019-03-22T07:03:13.344Z,53.50
2019-03-22T07:05:45.609Z,52.20
2019-03-22T07:08:16.892Z,51.57
2019-03-22T07:10:48.678Z,49.37
2019-03-22T07:13:20.094Z,54.27
2019-03-22T07:15:51.914Z,56.83
2019-03-22T07:18:23.206Z,53.23
2019-03-22T07:20:54.869Z,50.47
2019-03-22T07:23:27.499Z,51.33
2019-03-22T07:25:58.749Z,53.73
2019-03-22T07:28:30.034Z,47.30
2019-03-22T07:31:02.929Z,50.50
2019-03-22T07:33:35.230Z,47.73
2019-03-22T07:36:06.725Z,49.90
2019-03-22T07:38:37.995Z,49.60
2019-03-22T07:41:09.246Z,47.10
2019-03-22T07:43:43.614Z,48.73
2019-03-22T07:46:14.888Z,43.47
2019-03-22T07:48:46.272Z,47.63
2019-03-22T07:51:18.442Z,45.43
2019-03-22T07:53:50.612Z,46.53
2019-03-22T07:56:23.343Z,51.87
2019-03-22T07:58:54.734Z,48.10
2019-03-22T08:01:26.062Z,49.17
2019-03-22T08:03:59.131Z,51.83
2019-03-22T08:06:30.595Z,51.03
2019-03-22T08:09:01.873Z,49.97
2019-03-22T08:11:33.161Z,46.03
2019-03-22T08:14:06.171Z,45.17
2019-03-22T08:16:37.418Z,49.43
2019-03-22T08:19:08.786Z,50.47
2019-03-22T08:21:40.053Z,54.23
2019-03-22T08:24:11.338Z,46.60
2019-03-22T08:26:42.620Z,45.37
2019-03-22T08:29:13.952Z,52.20
2019-03-22T08:31:45.218Z,46.40
2019-03-22T08:34:17.607Z,46.07
2019-03-22T08:36:48.951Z,46.20
2019-03-22T08:39:20.255Z,45.90
2019-03-22T08:41:52.747Z,48.63
2019-03-22T08:44:24.915Z,47.60
2019-03-22T08:46:56.272Z,45.43
2019-03-22T08:49:27.832Z,45.60
2019-03-22T08:52:00.083Z,43.47
2019-03-22T08:54:31.462Z,49.00
2019-03-22T08:57:02.957Z,51.00
2019-03-22T08:59:34.519Z,47.77
2019-03-22T09:02:08.162Z,46.93
2019-03-22T09:04:38.822Z,45.80
2019-03-22T09:07:10.110Z,48.97
2019-03-22T09:09:42.409Z,43.90
2019-03-22T09:12:13.974Z,45.90
2019-03-22T09:14:45.263Z,46.90
2019-03-22T09:17:16.788Z,47.90
2019-03-22T09:19:51.047Z,44.60
2019-03-22T09:22:21.746Z,46.93
2019-03-22T09:24:53.064Z,53.50
2019-03-22T09:27:24.384Z,46.57
2019-03-22T09:29:56.116Z,47.17
2019-03-22T09:32:27.360Z,49.90
2019-03-22T09:35:00.443Z,48.93
2019-03-22T09:37:31.729Z,47.40
2019-03-22T09:40:03.100Z,46.67
2019-03-22T09:42:35.694Z,43.20
2019-03-22T09:45:07.737Z,46.70
2019-03-22T09:47:39.030Z,45.63
2019-03-22T09:50:11.013Z,41.53
2019-03-22T09:52:42.857Z,46.40
2019-03-22T09:55:14.724Z,48.23
2019-03-22T09:57:49.235Z,48.57
2019-03-22T10:00:33.705Z,44.57
2019-03-22T10:03:06.852Z,49.10
2019-03-22T10:05:38.219Z,49.10
2019-03-22T10:08:09.512Z,50.47
2019-03-22T10:10:40.789Z,50.43
2019-03-22T10:13:12.090Z,47.53
2019-03-22T10:15:43.758Z,49.07
2019-03-22T10:18:15.192Z,49.23
2019-03-22T10:20:49.985Z,52.63
2019-03-22T10:23:22.443Z,54.90
2019-03-22T10:25:54.129Z,55.53
2019-03-22T10:28:25.415Z,47.67
2019-03-22T10:30:56.696Z,51.47
2019-03-22T10:33:28.009Z,52.53
2019-03-22T10:35:59.302Z,51.80
2019-03-22T10:38:32.259Z,56.03
2019-03-22T10:41:03.746Z,52.30
2019-03-22T10:43:35.002Z,56.40
2019-03-22T10:46:08.072Z,55.40
2019-03-22T10:48:40.882Z,53.13
2019-03-22T10:51:12.409Z,56.43
2019-03-22T10:53:43.647Z,49.00
2019-03-22T10:56:14.950Z,53.10
2019-03-22T10:58:48.631Z,49.77
2019-03-22T11:01:19.978Z,51.43
2019-03-22T11:03:52.467Z,53.43
2019-03-22T11:06:26.360Z,52.57
2019-03-22T11:08:56.955Z,54.77
2019-03-22T11:11:28.241Z,53.87
2019-03-22T11:13:59.494Z,56.20
2019-03-22T11:16:30.779Z,54.00
2019-03-22T11:19:03.020Z,54.57
2019-03-22T11:21:35.544Z,52.77
2019-03-22T11:24:06.904Z,53.73
2019-03-22T11:26:38.585Z,55.63
2019-03-22T11:29:12.730Z,53.90
2019-03-22T11:31:44.038Z,55.30
2019-03-22T11:34:15.300Z,53.53
2019-03-22T11:36:46.603Z,54.67
2019-03-22T11:39:17.860Z,52.77
2019-03-22T11:41:57.316Z,54.57
2019-03-22T11:44:29.571Z,53.97
2019-03-22T11:47:00.910Z,57.47
2019-03-22T11:49:32.455Z,51.60
2019-03-22T11:52:03.765Z,50.37
2019-03-22T11:54:35.508Z,55.80
2019-03-22T11:57:07.182Z,55.10
2019-03-22T11:59:41.563Z,54.70
2019-03-22T12:02:22.183Z,55.60
2019-03-22T12:04:47.061Z,54.40
2019-03-22T12:07:18.352Z,53.03
2019-03-22T12:09:50.309Z,52.93
2019-03-22T12:12:21.602Z,53.30
2019-03-22T12:14:52.858Z,54.40
2019-03-22T12:17:24.110Z,50.00
2019-03-22T12:19:56.081Z,53.20
2019-03-22T12:22:27.366Z,50.70
2019-03-22T12:24:58.751Z,56.20
2019-03-22T12:27:36.570Z,52.50
2019-03-22T12:30:03.068Z,59.50
2019-03-22T12:32:35.443Z,53.87
2019-03-22T12:35:09.011Z,55.07
2019-03-22T12:37:40.321Z,57.20
2019-03-22T12:40:13.859Z,56.97
2019-03-22T12:42:45.142Z,57.87
2019-03-22T12:45:21.862Z,55.17
2019-03-22T12:47:53.326Z,57.30
2019-03-22T12:50:25.113Z,55.53
2019-03-22T12:52:56.464Z,56.13
2019-03-22T12:55:27.727Z,54.83
2019-03-22T12:58:00.818Z,53.10
2019-03-22T13:00:34.269Z,57.67
2019-03-22T13:03:05.598Z,56.63
2019-03-22T13:05:36.864Z,53.40
2019-03-22T13:08:08.211Z,54.03
2019-03-22T13:10:39.499Z,54.97
2019-03-22T13:13:11.748Z,49.80
2019-03-22T13:15:43.316Z,47.50
2019-03-22T13:18:14.564Z,49.30
2019-03-22T13:20:45.822Z,50.83
2019-03-22T13:23:18.044Z,53.00
2019-03-22T13:25:51.225Z,53.83
2019-03-22T13:28:22.510Z,50.17
2019-03-22T13:30:53.790Z,51.30
2019-03-22T13:33:26.280Z,53.07
2019-03-22T13:35:58.884Z,50.87
2019-03-22T13:38:30.149Z,52.10
2019-03-22T13:41:02.793Z,47.73
2019-03-22T13:43:34.048Z,47.73
2019-03-22T13:46:07.511Z,47.63
2019-03-22T13:48:38.771Z,49.67
2019-03-22T13:51:10.175Z,47.10
2019-03-22T13:53:41.515Z,49.33
2019-03-22T13:56:14.908Z,45.63
2019-03-22T13:58:47.415Z,45.87
2019-03-22T14:01:18.973Z,45.80
2019-03-22T14:03:50.298Z,52.27
2019-03-22T14:06:21.937Z,48.07
2019-03-22T14:08:53.392Z,46.23
2019-03-22T14:11:24.666Z,47.47
2019-03-22T14:13:56.787Z,43.93
2019-03-22T14:16:28.434Z,49.57
2019-03-22T14:19:01.654Z,47.57
2019-03-22T14:21:35.147Z,47.30
2019-03-22T14:24:11.150Z,45.37
2019-03-22T14:26:42.406Z,45.47
2019-03-22T14:29:14.298Z,44.17
2019-03-22T14:31:47.069Z,48.70
2019-03-22T14:34:19.548Z,47.83
2019-03-22T14:36:50.836Z,46.67
2019-03-22T14:39:23.034Z,48.23
2019-03-22T14:41:55.286Z,49.93
2019-03-22T14:44:28.985Z,46.43
2019-03-22T14:47:01.092Z,45.63
2019-03-22T14:49:32.802Z,47.87
2019-03-22T14:52:06.820Z,45.03
2019-03-22T14:54:39.776Z,42.73
2019-03-22T14:57:11.180Z,46.43
2019-03-22T14:59:43.669Z,45.97
2019-03-22T15:02:16.186Z,44.70
2019-03-22T15:04:49.272Z,43.17
2019-03-22T15:07:20.555Z,48.17
2019-03-22T15:09:51.809Z,47.23
2019-03-22T15:12:24.559Z,42.30
2019-03-22T15:15:03.027Z,46.67
2019-03-22T15:17:59.469Z,46.77
2019-03-22T15:20:49.324Z,40.03
2019-03-22T15:23:38.389Z,48.10
2019-03-22T15:26:30.503Z,45.63
2019-03-22T15:29:24.822Z,47.17
2019-03-22T15:32:16.307Z,45.77
2019-03-22T15:35:06.175Z,49.30
2019-03-22T15:37:59.450Z,43.90
2019-03-22T15:40:33.732Z,48.33
2019-03-22T15:43:05.082Z,48.07
2019-03-22T15:45:36.396Z,50.33
2019-03-22T15:48:07.650Z,46.97
2019-03-22T15:50:39.426Z,48.50
2019-03-22T15:53:10.693Z,47.93
2019-03-22T15:55:44.040Z,50.10
2019-03-22T15:58:15.630Z,50.77
2019-03-22T16:00:47.042Z,45.20
2019-03-22T16:03:18.433Z,49.03
2019-03-22T16:05:50.256Z,50.63
2019-03-22T16:08:21.525Z,51.17
2019-03-22T16:10:53.272Z,48.70
2019-03-22T16:13:25.462Z,48.47
2019-03-22T16:15:56.888Z,45.87
2019-03-22T16:18:29.028Z,48.27
2019-03-22T16:21:00.583Z,46.77
2019-03-22T16:23:31.846Z,47.93
2019-03-22T16:26:04.843Z,44.40
2019-03-22T16:28:37.071Z,46.77
2019-03-22T16:31:08.338Z,45.97
2019-03-22T16:33:39.608Z,49.60
2019-03-22T16:36:10.898Z,45.80
2019-03-22T16:38:44.116Z,45.90
2019-03-22T16:41:15.682Z,46.20
2019-03-22T16:43:49.412Z,49.67
2019-03-22T16:46:20.673Z,46.93
2019-03-22T16:48:52.020Z,48.57
2019-03-22T16:51:24.517Z,47.33
2019-03-22T16:53:56.319Z,44.70
2019-03-22T16:56:27.906Z,46.73
2019-03-22T16:59:01.068Z,49.00
2019-03-22T17:01:32.327Z,49.63
2019-03-22T17:04:05.066Z,49.07
2019-03-22T17:06:36.551Z,52.37
2019-03-22T17:09:09.769Z,55.37
2019-03-22T17:11:44.668Z,51.13
2019-03-22T17:14:17.794Z,51.23
2019-03-22T17:16:50.685Z,52.77
2019-03-22T17:19:24.732Z,54.73
2019-03-22T17:21:55.963Z,51.80
2019-03-22T17:24:27.279Z,51.90
2019-03-22T17:26:59.592Z,54.33
2019-03-22T17:29:32.746Z,55.13
2019-03-22T17:32:04.450Z,54.10
2019-03-22T17:34:35.729Z,54.80
2019-03-22T17:37:07.770Z,51.43
2019-03-22T17:39:39.333Z,52.37
2019-03-22T17:42:10.813Z,52.30
2019-03-22T17:44:42.239Z,55.70
2019-03-22T17:47:13.503Z,57.30
2019-03-22T17:49:48.422Z,63.73
2019-03-22T17:52:18.917Z,60.97
2019-03-22T17:54:50.379Z,55.23
2019-03-22T17:57:23.964Z,58.20
2019-03-22T17:59:55.292Z,58.97
2019-03-22T18:02:27.116Z,53.90
2019-03-22T18:04:58.524Z,57.07
2019-03-22T18:07:30.859Z,51.93
2019-03-22T18:10:03.110Z,53.13
2019-03-22T18:12:35.189Z,54.93
2019-03-22T18:15:08.801Z,55.47
2019-03-22T18:17:40.278Z,57.57
2019-03-22T18:20:12.748Z,58.30
2019-03-22T18:22:47.062Z,58.80
2019-03-22T18:25:19.886Z,59.40
2019-03-22T18:27:51.607Z,60.27
2019-03-22T18:30:22.892Z,58.27
2019-03-22T18:32:54.448Z,53.83
2019-03-22T18:35:27.850Z,58.17
2019-03-22T18:37:59.579Z,58.07
2019-03-22T18:40:30.919Z,57.90
2019-03-22T18:43:02.260Z,59.07
2019-03-22T18:45:33.693Z,57.90
2019-03-22T18:48:07.718Z,60.40
2019-03-22T18:50:44.271Z,59.17
2019-03-22T18:53:15.935Z,61.90
2019-03-22T18:55:47.786Z,60.80
2019-03-22T18:58:19.078Z,61.87
2019-03-22T19:00:50.368Z,61.53
2019-03-22T19:03:21.859Z,59.83
2019-03-22T19:05:53.535Z,63.73
2019-03-22T19:08:24.792Z,62.33
2019-03-22T19:10:56.093Z,63.97
2019-03-22T19:13:30.997Z,66.90
2019-03-22T19:16:00.464Z,64.97
2019-03-22T19:18:32.884Z,63.17
2019-03-22T19:21:06.900Z,65.80
2019-03-22T19:23:39.272Z,63.23
2019-03-22T19:26:13.057Z,65.93
2019-03-22T19:28:45.000Z,65.00
2019-03-22T19:31:16.301Z,69.57
2019-03-22T19:33:49.046Z,68.70
2019-03-22T19:36:21.701Z,62.73
2019-03-22T19:38:52.983Z,62.23
2019-03-22T19:41:24.368Z,65.90
2019-03-22T19:43:55.778Z,66.57
2019-03-22T19:46:28.866Z,66.87
2019-03-22T19:49:00.134Z,71.00
2019-03-22T19:51:31.411Z,71.80
2019-03-22T19:54:03.345Z,70.03
2019-03-22T19:56:36.093Z,74.97
2019-03-22T19:59:07.900Z,68.73
2019-03-22T20:01:39.223Z,69.33
2019-03-22T20:04:11.171Z,70.77
2019-03-22T20:06:42.827Z,71.30
2019-03-22T20:09:15.581Z,81.40
2019-03-22T20:11:46.861Z,75.17
2019-03-22T20:14:18.151Z,72.57
2019-03-22T20:16:49.527Z,75.23
2019-03-22T20:19:21.657Z,76.00
2019-03-22T20:21:53.055Z,81.30
2019-03-22T20:24:24.703Z,77.17
2019-03-22T20:26:57.098Z,79.97
2019-03-22T20:29:28.422Z,76.03
2019-03-22T20:31:59.678Z,80.40
2019-03-22T20:34:30.955Z,75.50
2019-03-22T20:37:04.018Z,78.60
2019-03-22T20:39:36.016Z,79.83
2019-03-22T20:42:08.275Z,80.57
2019-03-22T20:44:40.225Z,78.40
2019-03-22T20:47:11.435Z,78.00
2019-03-22T20:49:44.244Z,81.60
2019-03-22T20:52:15.639Z,78.03
2019-03-22T20:54:46.918Z,80.90
2019-03-22T20:57:18.171Z,75.07
2019-03-22T20:59:49.588Z,79.73
2019-03-22T21:02:20.856Z,80.83
2019-03-22T21:04:52.133Z,79.30
2019-03-22T21:07:23.405Z,80.27
2019-03-22T21:09:54.675Z,79.47
2019-03-22T21:12:25.930Z,81.47
2019-03-22T21:14:57.295Z,81.13
2019-03-22T21:17:28.531Z,80.47
2019-03-22T21:19:59.970Z,80.43
2019-03-22T21:22:31.309Z,82.40
2019-03-22T21:25:02.580Z,79.50
2019-03-22T21:27:33.838Z,87.07
2019-03-22T21:30:06.541Z,84.37
2019-03-22T21:32:45.060Z,77.47
2019-03-22T21:35:21.880Z,83.30
2019-03-22T21:37:44.995Z,82.37
2019-03-22T21:40:17.355Z,80.03
2019-03-22T21:42:48.604Z,81.90
2019-03-22T21:45:19.891Z,75.50
2019-03-22T21:47:51.265Z,81.93
2019-03-22T21:50:23.355Z,81.00
2019-03-22T21:52:56.221Z,82.87
2019-03-22T21:55:29.479Z,79.30
2019-03-22T21:58:01.444Z,78.77
2019-03-22T22:00:34.010Z,80.33
2019-03-22T22:03:06.598Z,79.17
2019-03-22T22:05:47.492Z,75.90
2019-03-22T22:08:13.023Z,78.63
2019-03-22T22:10:44.383Z,87.20
2019-03-22T22:13:15.684Z,81.60
2019-03-22T22:15:47.719Z,78.43
2019-03-22T22:18:19.708Z,84.80
2019-03-22T22:20:52.926Z,82.70
2019-03-22T22:23:24.263Z,88.13
2019-03-22T22:25:57.024Z,80.73
2019-03-22T22:28:29.419Z,84.33
2019-03-22T22:31:00.730Z,85.23
2019-03-22T22:33:32.027Z,89.93
2019-03-22T22:36:04.940Z,92.90
2019-03-22T22:38:36.306Z,89.63
2019-03-22T22:41:07.682Z,92.03
2019-03-22T22:43:39.092Z,93.93
2019-03-22T22:46:11.073Z,99.20
2019-03-22T22:48:42.354Z,93.70
2019-03-22T22:51:13.653Z,88.53
2019-03-22T22:53:45.086Z,91.43
2019-03-22T22:56:16.458Z,96.90
2019-03-22T22:58:47.866Z,88.20
2019-03-22T23:01:19.430Z,90.90
2019-03-22T23:03:50.728Z,95.93
2019-03-22T23:06:21.982Z,90.73
2019-03-22T23:08:53.259Z,82.77
2019-03-22T23:11:24.765Z,89.03
2019-03-22T23:13:56.029Z,97.07
2019-03-22T23:16:27.312Z,90.13
2019-03-22T23:18:58.605Z,93.20
2019-03-22T23:21:29.906Z,91.70
2019-03-22T23:24:01.301Z,99.10
2019-03-22T23:26:32.555Z,92.40
2019-03-22T23:29:05.632Z,100.23
2019-03-22T23:31:37.019Z,91.67
2019-03-22T23:34:08.307Z,85.33
2019-03-22T23:36:39.640Z,91.87
2019-03-22T23:39:11.432Z,91.10
2019-03-22T23:41:42.725Z,94.90
2019-03-22T23:44:14.086Z,86.77
2019-03-22T23:46:45.354Z,95.87
2019-03-22T23:49:16.634Z,101.27
2019-03-22T23:51:47.894Z,93.57
2019-03-22T23:54:19.273Z,93.37
2019-03-22T23:56:51.608Z,93.20
2019-03-22T23:59:23.908Z,94.00
